Rising Sun, Ohio
Current Conditions -  °F | °C
As of 4:53 AM on Saturday 25 Oct 2014 (Local Time) from KTDZ Reporting Station
Haze Haze  
Wind Chill:   Ceiling: Unl
Heat Index:   Visibility: 5mi
Dew Point:   Wind: 6mph
Humidity: 90%   Direction: 220°SW
Pressure: 29.92"   Gusts: NA
Location:  41.2686°N, 83.4288°W
Report Text: KTDZ 250853Z AUTO 22005KT 5SM BR SCT090 08/07 A2992 RMK AO2 SLP132 T00830067 58014 TSNO
Loading
Personal Weather Stations






























Interactive Weather Map
Tropical Storm Tracking
New forecast layout! Learn more

10-Day Weather Forecast

Advertisements
Track Severe Weather on mobile